createdAt,value
2018-09-05T00:01:58.019Z,94293.05
2018-09-05T00:04:26.682Z,94299.80
2018-09-05T00:06:55.472Z,94297.95
2018-09-05T00:09:24.255Z,94298.86
2018-09-05T00:11:52.978Z,94305.67
2018-09-05T00:14:21.806Z,94304.41
2018-09-05T00:16:50.573Z,94315.86
2018-09-05T00:19:19.242Z,94316.50
2018-09-05T00:21:47.911Z,94314.25
2018-09-05T00:24:16.572Z,94315.16
2018-09-05T00:26:45.247Z,94322.92
2018-09-05T00:29:13.992Z,94327.56
2018-09-05T00:31:42.704Z,94326.73
2018-09-05T00:34:11.446Z,94324.91
2018-09-05T00:36:40.105Z,94321.91
2018-09-05T00:39:09.722Z,94314.08
2018-09-05T00:41:38.604Z,94321.97
2018-09-05T00:44:07.455Z,94319.28
2018-09-05T00:46:36.224Z,94314.06
2018-09-05T00:49:05.077Z,94317.16
2018-09-05T00:51:33.755Z,94322.81
2018-09-05T00:54:02.430Z,94316.05
2018-09-05T00:56:31.202Z,94304.78
2018-09-05T00:58:59.914Z,94315.00
2018-09-05T01:01:28.859Z,94320.41
2018-09-05T01:03:57.630Z,94319.19
2018-09-05T01:06:26.350Z,94310.49
2018-09-05T01:08:55.651Z,94314.23
2018-09-05T01:11:24.411Z,94311.02
2018-09-05T01:13:53.134Z,94300.20
2018-09-05T01:16:21.842Z,94307.92
2018-09-05T01:18:50.529Z,94302.72
2018-09-05T01:21:19.284Z,94317.45
2018-09-05T01:23:47.943Z,94324.88
2018-09-05T01:26:16.616Z,94321.69
2018-09-05T01:28:45.325Z,94323.47
2018-09-05T01:31:13.974Z,94327.46
2018-09-05T01:33:42.630Z,94318.49
2018-09-05T01:36:17.489Z,94314.19
2018-09-05T01:38:46.204Z,94317.95
2018-09-05T01:41:15.710Z,94321.81
2018-09-05T01:43:44.893Z,94313.27
2018-09-05T01:46:13.695Z,94320.06
2018-09-05T01:48:42.404Z,94311.62
2018-09-05T01:51:11.232Z,94315.84
2018-09-05T01:53:39.963Z,94312.45
2018-09-05T01:56:08.625Z,94301.95
2018-09-05T01:58:37.352Z,94305.16
2018-09-05T02:01:06.056Z,94300.61
2018-09-05T02:03:34.803Z,94303.16
2018-09-05T02:06:03.500Z,94298.20
2018-09-05T02:08:32.174Z,94295.97
2018-09-05T02:11:00.878Z,94299.48
2018-09-05T02:13:29.537Z,94302.55
2018-09-05T02:15:58.271Z,94300.05
2018-09-05T02:18:26.966Z,94306.16
2018-09-05T02:20:55.674Z,94299.95
2018-09-05T02:23:24.329Z,94306.68
2018-09-05T02:25:53.626Z,94304.19
2018-09-05T02:28:22.276Z,94311.47
2018-09-05T02:30:50.968Z,94310.49
2018-09-05T02:33:19.647Z,94312.27
2018-09-05T02:35:48.358Z,94319.30
2018-09-05T02:38:17.015Z,94334.43
2018-09-05T02:40:45.710Z,94317.45
2018-09-05T02:43:18.476Z,94335.48
2018-09-05T02:45:47.217Z,94339.64
2018-09-05T02:48:16.078Z,94348.69
2018-09-05T02:50:46.054Z,94345.22
2018-09-05T02:53:16.108Z,94346.59
2018-09-05T02:55:50.594Z,94342.92
2018-09-05T02:58:19.678Z,94338.75
2018-09-05T03:00:49.402Z,94352.34
2018-09-05T03:03:19.326Z,94345.70
2018-09-05T03:05:49.151Z,94352.13
2018-09-05T03:08:19.133Z,94347.85
2018-09-05T03:10:48.668Z,94351.56
2018-09-05T03:13:18.260Z,94340.36
2018-09-05T03:15:47.763Z,94348.53
2018-09-05T03:18:17.339Z,94347.71
2018-09-05T03:20:46.079Z,94348.32
2018-09-05T03:23:14.779Z,94343.45
2018-09-05T03:25:43.474Z,94350.61
2018-09-05T03:28:12.220Z,94351.70
2018-09-05T03:30:41.065Z,94356.11
2018-09-05T03:33:09.819Z,94347.71
2018-09-05T03:35:39.633Z,94353.16
2018-09-05T03:38:08.333Z,94355.56
2018-09-05T03:40:37.025Z,94357.81
2018-09-05T03:43:05.772Z,94363.83
2018-09-05T03:45:34.486Z,94357.55
2018-09-05T03:48:03.201Z,94357.62
2018-09-05T03:50:31.962Z,94359.95
2018-09-05T03:53:00.638Z,94365.68
2018-09-05T03:55:29.348Z,94359.67
2018-09-05T03:57:58.006Z,94360.59
2018-09-05T04:00:30.290Z,94364.75
2018-09-05T04:02:59.013Z,94364.52
2018-09-05T04:05:27.840Z,94369.39
2018-09-05T04:07:56.533Z,94370.64
2018-09-05T04:10:25.217Z,94374.86
2018-09-05T04:12:53.911Z,94379.23
2018-09-05T04:15:22.675Z,94373.84
2018-09-05T04:17:51.423Z,94380.84
2018-09-05T04:20:20.153Z,94388.46
2018-09-05T04:22:48.801Z,94388.16
2018-09-05T04:25:17.440Z,94386.41
2018-09-05T04:27:46.147Z,94387.31
2018-09-05T04:30:14.853Z,94388.46
2018-09-05T04:32:43.566Z,94387.89
2018-09-05T04:35:12.250Z,94396.90
2018-09-05T04:37:40.929Z,94395.40
2018-09-05T04:40:09.677Z,94396.19
2018-09-05T04:42:38.391Z,94402.45
2018-09-05T04:45:07.186Z,94407.06
2018-09-05T04:47:35.992Z,94397.62
2018-09-05T04:50:04.745Z,94404.31
2018-09-05T04:52:33.436Z,94402.48
2018-09-05T04:55:02.109Z,94407.80
2018-09-05T04:57:30.857Z,94413.44
2018-09-05T05:02:13.234Z,94416.14
2018-09-05T05:04:41.909Z,94414.03
2018-09-05T05:07:10.585Z,94408.34
2018-09-05T05:09:39.358Z,94415.56
2018-09-05T05:12:08.023Z,94409.77
2018-09-05T05:14:36.728Z,94413.95
2018-09-05T05:17:05.438Z,94409.94
2018-09-05T05:19:34.188Z,94411.72
2018-09-05T05:22:03.489Z,94411.33
2018-09-05T05:24:32.172Z,94414.70
2018-09-05T05:27:00.827Z,94420.98
2018-09-05T05:29:29.475Z,94427.88
2018-09-05T05:31:58.098Z,94423.72
2018-09-05T05:34:26.819Z,94446.31
2018-09-05T05:36:55.516Z,94423.78
2018-09-05T05:39:24.137Z,94425.18
2018-09-05T05:41:53.108Z,94409.38
2018-09-05T05:44:21.767Z,94413.65
2018-09-05T05:46:50.699Z,94419.67
2018-09-05T05:49:19.272Z,94413.84
2018-09-05T05:51:48.015Z,94424.33
2018-09-05T05:54:16.696Z,94417.34
2018-09-05T05:56:45.326Z,94411.03
2018-09-05T05:59:13.984Z,94419.66
2018-09-05T06:01:42.699Z,94410.55
2018-09-05T06:04:11.422Z,94417.37
2018-09-05T06:06:40.137Z,94419.99
2018-09-05T06:09:10.599Z,94419.99
2018-09-05T06:11:39.386Z,94417.75
2018-09-05T06:14:08.085Z,94423.63
2018-09-05T06:16:36.720Z,94416.33
2018-09-05T06:19:05.486Z,94429.82
2018-09-05T06:21:34.176Z,94432.23
2018-09-05T06:24:02.954Z,94435.78
2018-09-05T06:26:31.632Z,94433.45
2018-09-05T06:29:00.298Z,94419.47
2018-09-05T06:31:29.208Z,94425.42
2018-09-05T06:33:57.959Z,94426.36
2018-09-05T06:36:26.623Z,94424.41
2018-09-05T06:38:55.409Z,94424.29
2018-09-05T06:41:24.111Z,94426.77
2018-09-05T06:43:52.816Z,94427.48
2018-09-05T06:46:21.555Z,94426.61
2018-09-05T06:48:50.186Z,94420.71
2018-09-05T06:51:18.911Z,94427.98
2018-09-05T06:53:47.532Z,94419.75
2018-09-05T06:56:16.205Z,94421.80
2018-09-05T06:58:44.955Z,94426.18
2018-09-05T07:01:14.143Z,94427.72
2018-09-05T07:03:43.260Z,94406.83
2018-09-05T07:06:11.906Z,94406.23
2018-09-05T07:08:40.589Z,94410.52
2018-09-05T07:11:09.223Z,94405.16
2018-09-05T07:13:37.959Z,94417.19
2018-09-05T07:16:06.700Z,94415.91
2018-09-05T07:18:35.396Z,94414.89
2018-09-05T07:21:06.995Z,94421.23
2018-09-05T07:23:32.827Z,94423.70
2018-09-05T07:26:01.484Z,94419.63
2018-09-05T07:28:30.155Z,94419.03
2018-09-05T07:30:58.972Z,94420.94
2018-09-05T07:33:27.787Z,94415.05
2018-09-05T07:35:56.596Z,94416.50
2018-09-05T07:38:25.309Z,94420.82
2018-09-05T07:40:54.222Z,94433.71
2018-09-05T07:43:22.878Z,94421.75
2018-09-05T07:45:51.591Z,94412.09
2018-09-05T07:48:20.308Z,94420.70
2018-09-05T07:50:49.022Z,94430.84
2018-09-05T07:53:17.769Z,94428.66
2018-09-05T07:55:46.432Z,94424.70
2018-09-05T07:58:15.091Z,94426.17
2018-09-05T08:00:43.842Z,94430.61
2018-09-05T08:03:12.556Z,94429.91
2018-09-05T08:05:41.265Z,94420.22
2018-09-05T08:08:09.909Z,94420.77
2018-09-05T08:10:38.776Z,94423.85
2018-09-05T08:13:08.926Z,94419.95
2018-09-05T08:15:37.957Z,94414.92
2018-09-05T08:18:07.147Z,94413.94
2018-09-05T08:20:36.082Z,94405.06
2018-09-05T08:23:05.092Z,94406.19
2018-09-05T08:25:33.760Z,94406.77
2018-09-05T08:28:02.508Z,94393.55
2018-09-05T08:30:31.241Z,94392.03
2018-09-05T08:32:59.994Z,94394.88
2018-09-05T08:35:30.121Z,94394.47
2018-09-05T08:37:58.747Z,94389.73
2018-09-05T08:40:27.331Z,94397.56
2018-09-05T08:42:55.983Z,94388.11
2018-09-05T08:45:24.921Z,94394.38
2018-09-05T08:47:53.467Z,94397.39
2018-09-05T08:50:22.159Z,94393.10
2018-09-05T08:52:50.897Z,94392.77
2018-09-05T08:55:19.641Z,94380.66
2018-09-05T08:57:48.359Z,94383.91
2018-09-05T09:00:17.059Z,94390.59
2018-09-05T09:02:45.709Z,94392.55
2018-09-05T09:05:14.391Z,94385.66
2018-09-05T09:07:43.135Z,94377.52
2018-09-05T09:10:11.905Z,94375.98
2018-09-05T09:12:40.594Z,94386.48
2018-09-05T09:15:09.302Z,94382.11
2018-09-05T09:17:38.014Z,94375.01
2018-09-05T09:20:06.899Z,94390.69
2018-09-05T09:22:35.620Z,94375.56
2018-09-05T09:25:04.345Z,94379.19
2018-09-05T09:27:33.218Z,94367.92
2018-09-05T09:30:02.255Z,94380.91
2018-09-05T09:32:31.027Z,94368.20
2018-09-05T09:34:59.773Z,94356.45
2018-09-05T09:37:28.463Z,94363.27
2018-09-05T09:39:57.104Z,94352.60
2018-09-05T09:42:25.794Z,94360.13
2018-09-05T09:44:54.423Z,94359.17
2018-09-05T09:47:23.185Z,94357.45
2018-09-05T09:49:51.846Z,94347.34
2018-09-05T09:52:21.795Z,94352.91
2018-09-05T09:54:51.942Z,94344.18
2018-09-05T09:57:20.909Z,94354.97
2018-09-05T09:59:49.814Z,94356.25
2018-09-05T10:02:23.702Z,94347.44
2018-09-05T10:04:57.421Z,94354.82
2018-09-05T10:07:31.207Z,94337.04
2018-09-05T10:10:05.228Z,94349.98
2018-09-05T10:12:39.112Z,94349.78
2018-09-05T10:15:12.733Z,94334.59
2018-09-05T10:17:41.544Z,94338.80
2018-09-05T10:20:10.296Z,94336.27
2018-09-05T10:22:39.166Z,94337.87
2018-09-05T10:25:07.816Z,94322.75
2018-09-05T10:27:36.443Z,94323.94
2018-09-05T10:30:06.227Z,94340.27
2018-09-05T10:32:34.926Z,94323.97
2018-09-05T10:35:03.600Z,94318.75
2018-09-05T10:37:32.286Z,94314.23
2018-09-05T10:40:01.258Z,94322.52
2018-09-05T10:42:29.921Z,94325.98
2018-09-05T10:44:58.539Z,94319.94
2018-09-05T10:47:27.192Z,94315.45
2018-09-05T10:49:55.866Z,94325.79
2018-09-05T10:52:24.490Z,94318.62
2018-09-05T10:54:53.114Z,94330.33
2018-09-05T10:57:21.824Z,94322.08
2018-09-05T10:59:50.520Z,94313.84
2018-09-05T11:02:19.168Z,94323.84
2018-09-05T11:04:47.895Z,94307.37
2018-09-05T11:07:16.560Z,94315.72
2018-09-05T11:09:45.206Z,94301.38
2018-09-05T11:12:13.863Z,94313.03
2018-09-05T11:14:42.578Z,94295.20
2018-09-05T11:17:11.461Z,94302.98
2018-09-05T11:19:40.081Z,94299.05
2018-09-05T11:22:08.741Z,94287.68
2018-09-05T11:24:37.439Z,94292.97
2018-09-05T11:30:06.442Z,94290.25
2018-09-05T11:32:35.112Z,94284.95
2018-09-05T11:35:03.926Z,94278.31
2018-09-05T11:37:33.773Z,94280.14
2018-09-05T11:40:02.526Z,94282.24
2018-09-05T11:42:31.176Z,94266.44
2018-09-05T11:44:59.848Z,94270.39
2018-09-05T11:47:28.483Z,94293.21
2018-09-05T11:49:57.120Z,94278.82
2018-09-05T11:52:25.775Z,94265.60
2018-09-05T11:54:54.446Z,94259.30
2018-09-05T11:57:23.195Z,94275.31
2018-09-05T11:59:51.876Z,94271.38
2018-09-05T12:02:20.632Z,94261.48
2018-09-05T12:04:49.293Z,94269.13
2018-09-05T12:07:18.028Z,94264.04
2018-09-05T12:09:46.714Z,94267.56
2018-09-05T12:12:15.516Z,94267.55
2018-09-05T12:14:44.227Z,94245.59
2018-09-05T12:17:12.918Z,94251.30
2018-09-05T12:19:41.610Z,94251.08
2018-09-05T12:22:10.240Z,94262.25
2018-09-05T12:24:38.880Z,94242.73
2018-09-05T12:27:07.524Z,94239.66
2018-09-05T12:29:36.256Z,94245.14
2018-09-05T12:32:05.044Z,94234.79
2018-09-05T12:34:33.702Z,94232.50
2018-09-05T12:37:02.426Z,94240.61
2018-09-05T12:39:31.152Z,94230.12
2018-09-05T12:41:59.840Z,94233.89
2018-09-05T12:44:28.474Z,94242.13
2018-09-05T12:46:57.150Z,94229.82
2018-09-05T12:49:25.926Z,94236.25
2018-09-05T12:51:54.569Z,94225.08
2018-09-05T12:54:23.275Z,94226.45
2018-09-05T12:56:52.010Z,94237.30
2018-09-05T12:59:20.777Z,94234.53
2018-09-05T13:01:49.418Z,94231.23
2018-09-05T13:04:18.203Z,94236.31
2018-09-05T13:06:46.990Z,94234.19
2018-09-05T13:09:16.437Z,94225.03
2018-09-05T13:11:45.099Z,94229.55
2018-09-05T13:14:13.758Z,94219.27
2018-09-05T13:16:42.512Z,94225.04
2018-09-05T13:19:11.196Z,94237.39
2018-09-05T13:21:40.971Z,94231.34
2018-09-05T13:24:10.249Z,94233.95
2018-09-05T13:26:39.635Z,94236.22
2018-09-05T13:29:09.548Z,94236.35
2018-09-05T13:31:38.717Z,94221.08
2018-09-05T13:34:07.982Z,94215.05
2018-09-05T13:36:37.437Z,94213.55
2018-09-05T13:39:08.107Z,94219.84
2018-09-05T13:41:37.208Z,94220.47
2018-09-05T13:44:05.875Z,94219.48
2018-09-05T13:46:34.509Z,94226.66
2018-09-05T13:49:03.267Z,94232.06
2018-09-05T13:51:31.931Z,94221.53
2018-09-05T13:54:00.640Z,94221.06
2018-09-05T13:56:29.389Z,94236.65
2018-09-05T13:58:58.102Z,94248.02
2018-09-05T14:01:26.761Z,94253.87
2018-09-05T14:03:55.400Z,94257.80
2018-09-05T14:06:24.121Z,94256.68
2018-09-05T14:08:53.109Z,94262.84
2018-09-05T14:11:21.761Z,94247.77
2018-09-05T14:13:50.435Z,94251.12
2018-09-05T14:16:19.108Z,94260.74
2018-09-05T14:21:15.327Z,94261.16
2018-09-05T14:23:44.101Z,94249.42
2018-09-05T14:26:12.705Z,94259.31
2018-09-05T14:28:41.398Z,94256.43
2018-09-05T14:31:10.117Z,94269.49
2018-09-05T14:33:38.883Z,94262.85
2018-09-05T14:36:07.625Z,94270.58
2018-09-05T14:38:36.268Z,94246.13
2018-09-05T14:41:05.569Z,94268.13
2018-09-05T14:43:34.241Z,94257.62
2018-09-05T14:46:02.917Z,94277.28
2018-09-05T14:48:31.638Z,94280.95
2018-09-05T14:51:00.310Z,94274.67
2018-09-05T14:53:33.962Z,94273.84
2018-09-05T14:56:02.732Z,94296.36
2018-09-05T14:58:31.645Z,94288.45
2018-09-05T15:01:00.345Z,94290.94
2018-09-05T15:03:29.043Z,94292.95
2018-09-05T15:05:57.761Z,94283.41
2018-09-05T15:08:26.448Z,94294.37
2018-09-05T15:10:55.165Z,94289.22
2018-09-05T15:13:23.884Z,94305.02
2018-09-05T15:15:52.541Z,94305.98
2018-09-05T15:18:21.705Z,94299.54
2018-09-05T15:20:50.425Z,94299.44
2018-09-05T15:23:19.084Z,94302.27
2018-09-05T15:25:47.795Z,94294.21
2018-09-05T15:28:16.465Z,94302.05
2018-09-05T15:30:45.098Z,94287.07
2018-09-05T15:33:15.097Z,94280.47
2018-09-05T15:35:43.829Z,94297.03
2018-09-05T15:38:12.628Z,94299.26
2018-09-05T15:40:41.321Z,94295.69
2018-09-05T15:43:09.950Z,94294.09
2018-09-05T15:45:38.702Z,94303.33
2018-09-05T15:48:07.398Z,94304.47
2018-09-05T15:50:36.059Z,94308.25
2018-09-05T15:53:04.766Z,94308.57
2018-09-05T15:55:33.406Z,94310.75
2018-09-05T15:58:02.117Z,94317.84
2018-09-05T16:00:30.785Z,94312.42
2018-09-05T16:02:59.756Z,94321.87
2018-09-05T16:05:28.745Z,94318.66
2018-09-05T16:07:57.527Z,94321.91
2018-09-05T16:10:26.262Z,94320.97
2018-09-05T16:12:54.914Z,94325.97
2018-09-05T16:15:23.668Z,94322.17
2018-09-05T16:17:52.327Z,94315.83
2018-09-05T16:20:20.976Z,94324.41
2018-09-05T16:22:49.652Z,94322.13
2018-09-05T16:25:18.323Z,94320.98
2018-09-05T16:27:46.987Z,94321.31
2018-09-05T16:30:15.716Z,94325.39
2018-09-05T16:32:44.649Z,94319.50
2018-09-05T16:35:13.343Z,94322.87
2018-09-05T16:37:42.029Z,94316.78
2018-09-05T16:40:10.782Z,94320.23
2018-09-05T16:42:39.427Z,94325.27
2018-09-05T16:45:08.279Z,94322.14
2018-09-05T16:47:36.969Z,94334.73
2018-09-05T16:50:05.795Z,94328.44
2018-09-05T16:52:34.497Z,94326.58
2018-09-05T16:55:03.280Z,94330.01
2018-09-05T16:57:32.046Z,94333.51
2018-09-05T17:00:00.827Z,94333.97
2018-09-05T17:02:29.559Z,94339.62
2018-09-05T17:04:58.309Z,94339.36
2018-09-05T17:07:26.978Z,94333.13
2018-09-05T17:09:55.695Z,94335.16
2018-09-05T17:12:24.527Z,94342.66
2018-09-05T17:14:53.314Z,94339.97
2018-09-05T17:17:22.003Z,94342.80
2018-09-05T17:19:50.714Z,94346.22
2018-09-05T17:22:19.373Z,94342.52
2018-09-05T17:24:48.010Z,94338.80
2018-09-05T17:27:16.959Z,94341.11
2018-09-05T17:29:45.693Z,94352.83
2018-09-05T17:32:14.392Z,94357.02
2018-09-05T17:34:43.134Z,94354.00
2018-09-05T17:37:11.758Z,94359.56
2018-09-05T17:39:40.486Z,94361.13
2018-09-05T17:42:09.189Z,94362.20
2018-09-05T17:44:37.854Z,94366.94
2018-09-05T17:47:06.704Z,94369.95
2018-09-05T17:49:35.358Z,94376.95
2018-09-05T17:52:04.067Z,94388.70
2018-09-05T17:54:32.748Z,94392.70
2018-09-05T17:57:01.483Z,94396.24
2018-09-05T17:59:30.172Z,94390.45
2018-09-05T18:01:58.887Z,94389.81
2018-09-05T18:04:27.565Z,94392.34
2018-09-05T18:06:56.227Z,94401.56
2018-09-05T18:09:25.454Z,94397.03
2018-09-05T18:11:54.174Z,94400.85
2018-09-05T18:14:23.030Z,94394.27
2018-09-05T18:16:51.673Z,94395.88
2018-09-05T18:19:21.303Z,94395.39
2018-09-05T18:21:49.997Z,94396.11
2018-09-05T18:24:18.849Z,94390.84
2018-09-05T18:26:47.505Z,94398.22
2018-09-05T18:29:16.135Z,94393.61
2018-09-05T18:31:44.837Z,94393.95
2018-09-05T18:34:13.514Z,94397.45
2018-09-05T18:36:53.978Z,94394.82
2018-09-05T18:39:22.670Z,94403.91
2018-09-05T18:41:51.389Z,94396.18
2018-09-05T18:44:20.090Z,94398.31
2018-09-05T18:46:48.774Z,94404.32
2018-09-05T18:49:17.499Z,94400.27
2018-09-05T18:51:46.143Z,94398.48
2018-09-05T18:54:14.779Z,94404.43
2018-09-05T18:56:43.482Z,94402.91
2018-09-05T18:59:12.274Z,94402.30
2018-09-05T19:01:41.027Z,94410.02
2018-09-05T19:04:09.715Z,94404.17
2018-09-05T19:06:38.394Z,94407.27
2018-09-05T19:09:09.654Z,94399.64
2018-09-05T19:11:38.662Z,94394.38
2018-09-05T19:14:07.456Z,94395.55
2018-09-05T19:16:36.203Z,94399.02
2018-09-05T19:19:04.871Z,94397.36
2018-09-05T19:21:33.518Z,94397.06
2018-09-05T19:24:02.212Z,94391.39
2018-09-05T19:26:30.896Z,94393.29
2018-09-05T19:28:59.542Z,94390.66
2018-09-05T19:31:28.548Z,94391.85
2018-09-05T19:33:57.217Z,94403.99
2018-09-05T19:36:26.824Z,94406.94
2018-09-05T19:38:55.531Z,94409.50
2018-09-05T19:41:24.260Z,94402.03
2018-09-05T19:43:53.080Z,94404.89
2018-09-05T19:46:21.806Z,94398.25
2018-09-05T19:48:50.581Z,94399.94
2018-09-05T19:51:19.303Z,94403.89
2018-09-05T19:53:48.031Z,94400.53
2018-09-05T19:56:16.773Z,94400.00
2018-09-05T19:58:45.413Z,94399.50
2018-09-05T20:01:14.086Z,94395.70
2018-09-05T20:03:42.785Z,94388.45
2018-09-05T20:06:11.678Z,94390.30
2018-09-05T20:08:40.415Z,94387.68
2018-09-05T20:11:09.095Z,94384.66
2018-09-05T20:13:37.790Z,94384.91
2018-09-05T20:16:06.591Z,94393.32
2018-09-05T20:18:35.225Z,94392.90
2018-09-05T20:21:04.398Z,94383.69
2018-09-05T20:23:33.214Z,94393.69
2018-09-05T20:26:01.768Z,94385.37
2018-09-05T20:28:30.521Z,94399.53
2018-09-05T20:30:59.250Z,94399.91
2018-09-05T20:33:27.963Z,94392.18
2018-09-05T20:35:56.624Z,94391.39
2018-09-05T20:38:25.354Z,94397.89
2018-09-05T20:40:54.066Z,94388.70
2018-09-05T20:43:22.813Z,94390.94
2018-09-05T20:45:51.604Z,94395.96
2018-09-05T20:48:20.289Z,94388.83
2018-09-05T20:50:48.951Z,94386.75
2018-09-05T20:53:17.698Z,94384.88
2018-09-05T20:55:46.390Z,94390.50
2018-09-05T20:58:15.154Z,94382.52
2018-09-05T21:00:43.874Z,94393.13
2018-09-05T21:03:12.594Z,94390.27
2018-09-05T21:05:41.237Z,94397.97
2018-09-05T21:08:09.894Z,94399.28
2018-09-05T21:10:38.550Z,94399.91
2018-09-05T21:13:07.249Z,94402.83
2018-09-05T21:15:35.918Z,94397.01
2018-09-05T21:18:04.680Z,94394.64
2018-09-05T21:20:33.355Z,94407.00
2018-09-05T21:23:02.140Z,94400.30
2018-09-05T21:25:30.785Z,94391.78
2018-09-05T21:27:59.451Z,94405.89
2018-09-05T21:30:28.162Z,94395.83
2018-09-05T21:32:56.928Z,94397.80
2018-09-05T21:35:25.578Z,94390.66
2018-09-05T21:37:54.218Z,94392.94
2018-09-05T21:40:22.859Z,94392.94
2018-09-05T21:42:51.534Z,94383.44
2018-09-05T21:45:20.170Z,94379.66
2018-09-05T21:47:48.807Z,94386.38
2018-09-05T21:50:17.542Z,94380.99
2018-09-05T21:52:46.290Z,94379.38
2018-09-05T21:55:15.063Z,94374.26
2018-09-05T21:57:43.719Z,94377.27
2018-09-05T22:00:12.580Z,94373.19
2018-09-05T22:02:41.209Z,94369.70
2018-09-05T22:05:09.878Z,94368.16
2018-09-05T22:07:38.510Z,94365.66
2018-09-05T22:10:07.285Z,94366.56
2018-09-05T22:12:36.161Z,94361.67
2018-09-05T22:15:05.234Z,94365.98
2018-09-05T22:17:33.935Z,94374.89
2018-09-05T22:20:02.671Z,94374.59
2018-09-05T22:22:31.409Z,94373.34
2018-09-05T22:25:00.066Z,94370.65
2018-09-05T22:27:28.756Z,94374.59
2018-09-05T22:29:57.455Z,94376.05
2018-09-05T22:32:26.280Z,94370.73
2018-09-05T22:34:54.941Z,94370.50
2018-09-05T22:37:24.367Z,94362.17
2018-09-05T22:39:53.800Z,94362.84
2018-09-05T22:42:22.490Z,94366.64
2018-09-05T22:45:02.336Z,94370.13
2018-09-05T22:47:42.938Z,94370.35
2018-09-05T22:54:38.013Z,94376.13
2018-09-05T22:57:46.288Z,94369.77
2018-09-05T23:00:25.994Z,94362.41
2018-09-05T23:03:10.545Z,94365.41
2018-09-05T23:05:57.055Z,94360.57
2018-09-05T23:08:39.956Z,94362.70
2018-09-05T23:11:21.092Z,94356.51
2018-09-05T23:14:00.904Z,94368.10
2018-09-05T23:16:40.995Z,94367.21
2018-09-05T23:19:33.316Z,94362.55
2018-09-05T23:22:01.992Z,94368.10
2018-09-05T23:24:30.644Z,94367.02
2018-09-05T23:26:59.389Z,94368.97
2018-09-05T23:29:28.007Z,94368.11
2018-09-05T23:31:56.658Z,94370.92
2018-09-05T23:34:25.322Z,94368.83
2018-09-05T23:36:53.939Z,94366.50
2018-09-05T23:39:22.584Z,94373.63
2018-09-05T23:41:51.297Z,94369.31
2018-09-05T23:44:19.964Z,94368.35
2018-09-05T23:46:48.665Z,94367.38
2018-09-05T23:49:17.397Z,94374.31
2018-09-05T23:51:46.175Z,94373.08
2018-09-05T23:54:14.860Z,94373.22
2018-09-05T23:56:43.598Z,94375.92
2018-09-05T23:59:12.273Z,94375.40
